sensor_id;sensor_type;location;lat;lon;timestamp;temperature;humidity
46732;DHT22;32477;51.474;5.696;2023-03-14T00:00:35;12.00;99.90
46732;DHT22;32477;51.474;5.696;2023-03-14T00:03:00;11.90;99.90
46732;DHT22;32477;51.474;5.696;2023-03-14T00:05:26;11.80;99.90
46732;DHT22;32477;51.474;5.696;2023-03-14T00:07:52;11.80;99.90
46732;DHT22;32477;51.474;5.696;2023-03-14T00:10:18;11.90;99.90
46732;DHT22;32477;51.474;5.696;2023-03-14T00:12:44;11.80;99.90
46732;DHT22;32477;51.474;5.696;2023-03-14T00:15:11;11.90;99.90
46732;DHT22;32477;51.474;5.696;2023-03-14T00:17:37;11.80;99.90
46732;DHT22;32477;51.474;5.696;2023-03-14T00:20:04;11.80;99.90
46732;DHT22;32477;51.474;5.696;2023-03-14T00:22:40;11.80;99.90
46732;DHT22;32477;51.474;5.696;2023-03-14T00:25:07;11.80;99.90
46732;DHT22;32477;51.474;5.696;2023-03-14T00:27:33;11.70;99.90
46732;DHT22;32477;51.474;5.696;2023-03-14T00:29:59;11.70;99.90
46732;DHT22;32477;51.474;5.696;2023-03-14T00:32:25;11.70;99.90
46732;DHT22;32477;51.474;5.696;2023-03-14T00:34:51;11.70;99.90
46732;DHT22;32477;51.474;5.696;2023-03-14T00:37:17;11.80;99.90
46732;DHT22;32477;51.474;5.696;2023-03-14T00:39:42;11.70;99.90
46732;DHT22;32477;51.474;5.696;2023-03-14T00:42:08;11.70;99.90
46732;DHT22;32477;51.474;5.696;2023-03-14T00:44:34;11.70;99.90
46732;DHT22;32477;51.474;5.696;2023-03-14T00:47:00;11.60;99.90
46732;DHT22;32477;51.474;5.696;2023-03-14T00:49:26;11.50;99.90
46732;DHT22;32477;51.474;5.696;2023-03-14T00:51:52;11.40;99.90
46732;DHT22;32477;51.474;5.696;2023-03-14T00:54:18;11.20;99.90
46732;DHT22;32477;51.474;5.696;2023-03-14T00:56:44;11.20;99.90
46732;DHT22;32477;51.474;5.696;2023-03-14T00:59:11;11.10;99.90
46732;DHT22;32477;51.474;5.696;2023-03-14T01:01:38;11.20;99.90
46732;DHT22;32477;51.474;5.696;2023-03-14T01:04:04;11.30;99.90
46732;DHT22;32477;51.474;5.696;2023-03-14T01:06:29;11.30;99.90
46732;DHT22;32477;51.474;5.696;2023-03-14T01:08:56;11.30;99.90
46732;DHT22;32477;51.474;5.696;2023-03-14T01:11:33;11.20;99.90
46732;DHT22;32477;51.474;5.696;2023-03-14T01:14:00;11.20;99.90
46732;DHT22;32477;51.474;5.696;2023-03-14T01:16:27;11.10;99.90
46732;DHT22;32477;51.474;5.696;2023-03-14T01:18:53;11.10;99.90
46732;DHT22;32477;51.474;5.696;2023-03-14T01:21:25;11.10;99.90
46732;DHT22;32477;51.474;5.696;2023-03-14T01:23:51;11.20;99.90
46732;DHT22;32477;51.474;5.696;2023-03-14T01:26:20;11.20;99.90
46732;DHT22;32477;51.474;5.696;2023-03-14T01:28:47;11.20;99.90
46732;DHT22;32477;51.474;5.696;2023-03-14T01:31:13;11.30;99.90
46732;DHT22;32477;51.474;5.696;2023-03-14T01:33:39;11.40;99.90
46732;DHT22;32477;51.474;5.696;2023-03-14T01:36:05;11.30;99.90
46732;DHT22;32477;51.474;5.696;2023-03-14T01:38:33;11.20;99.90
46732;DHT22;32477;51.474;5.696;2023-03-14T01:41:00;11.30;99.90
46732;DHT22;32477;51.474;5.696;2023-03-14T01:43:26;11.30;99.90
46732;DHT22;32477;51.474;5.696;2023-03-14T01:48:40;11.20;99.90
46732;DHT22;32477;51.474;5.696;2023-03-14T01:51:11;11.30;99.90
46732;DHT22;32477;51.474;5.696;2023-03-14T01:53:38;11.30;99.90
46732;DHT22;32477;51.474;5.696;2023-03-14T01:56:05;11.20;99.90
46732;DHT22;32477;51.474;5.696;2023-03-14T01:58:32;11.20;99.90
46732;DHT22;32477;51.474;5.696;2023-03-14T02:01:01;11.30;99.90
46732;DHT22;32477;51.474;5.696;2023-03-14T02:03:28;11.30;99.90
46732;DHT22;32477;51.474;5.696;2023-03-14T02:05:57;11.20;99.90
46732;DHT22;32477;51.474;5.696;2023-03-14T02:08:27;11.30;99.90
46732;DHT22;32477;51.474;5.696;2023-03-14T02:10:53;11.20;99.90
46732;DHT22;32477;51.474;5.696;2023-03-14T02:13:20;11.20;99.90
46732;DHT22;32477;51.474;5.696;2023-03-14T02:15:47;11.20;99.90
46732;DHT22;32477;51.474;5.696;2023-03-14T02:18:14;11.20;99.90
46732;DHT22;32477;51.474;5.696;2023-03-14T02:28:39;11.10;99.90
46732;DHT22;32477;51.474;5.696;2023-03-14T02:31:05;11.00;99.90
46732;DHT22;32477;51.474;5.696;2023-03-14T02:33:31;10.90;99.90
46732;DHT22;32477;51.474;5.696;2023-03-14T02:36:00;10.70;99.90
46732;DHT22;32477;51.474;5.696;2023-03-14T02:38:33;10.70;99.90
46732;DHT22;32477;51.474;5.696;2023-03-14T02:41:00;10.60;99.90
46732;DHT22;32477;51.474;5.696;2023-03-14T02:43:25;10.60;99.90
46732;DHT22;32477;51.474;5.696;2023-03-14T02:45:52;10.60;99.90
46732;DHT22;32477;51.474;5.696;2023-03-14T02:51:19;10.50;99.90
46732;DHT22;32477;51.474;5.696;2023-03-14T02:53:45;10.50;99.90
46732;DHT22;32477;51.474;5.696;2023-03-14T02:56:10;10.50;99.90
46732;DHT22;32477;51.474;5.696;2023-03-14T02:58:37;10.50;99.90
46732;DHT22;32477;51.474;5.696;2023-03-14T03:01:03;10.60;99.90
46732;DHT22;32477;51.474;5.696;2023-03-14T03:03:29;10.60;99.90
46732;DHT22;32477;51.474;5.696;2023-03-14T03:05:56;10.50;99.90
46732;DHT22;32477;51.474;5.696;2023-03-14T03:08:23;10.50;99.90
46732;DHT22;32477;51.474;5.696;2023-03-14T03:10:50;10.50;99.90
46732;DHT22;32477;51.474;5.696;2023-03-14T03:13:16;10.60;99.90
46732;DHT22;32477;51.474;5.696;2023-03-14T03:15:42;10.80;99.90
46732;DHT22;32477;51.474;5.696;2023-03-14T03:18:08;10.70;99.90
46732;DHT22;32477;51.474;5.696;2023-03-14T03:20:34;10.80;99.90
46732;DHT22;32477;51.474;5.696;2023-03-14T03:23:00;10.80;99.90
46732;DHT22;32477;51.474;5.696;2023-03-14T03:25:26;10.80;99.90
46732;DHT22;32477;51.474;5.696;2023-03-14T03:27:51;10.80;99.90
46732;DHT22;32477;51.474;5.696;2023-03-14T03:30:18;10.80;99.90
46732;DHT22;32477;51.474;5.696;2023-03-14T03:32:44;10.80;99.90
46732;DHT22;32477;51.474;5.696;2023-03-14T03:35:09;10.70;99.90
46732;DHT22;32477;51.474;5.696;2023-03-14T03:37:35;10.70;99.90
46732;DHT22;32477;51.474;5.696;2023-03-14T03:40:01;10.80;99.90
46732;DHT22;32477;51.474;5.696;2023-03-14T03:42:31;10.70;99.90
46732;DHT22;32477;51.474;5.696;2023-03-14T03:44:57;10.70;99.90
46732;DHT22;32477;51.474;5.696;2023-03-14T03:47:22;10.70;99.90
46732;DHT22;32477;51.474;5.696;2023-03-14T03:49:48;10.70;99.90
46732;DHT22;32477;51.474;5.696;2023-03-14T03:52:14;10.70;99.90
46732;DHT22;32477;51.474;5.696;2023-03-14T03:54:39;10.60;99.90
46732;DHT22;32477;51.474;5.696;2023-03-14T03:57:05;10.60;99.90
46732;DHT22;32477;51.474;5.696;2023-03-14T03:59:31;10.50;99.90
46732;DHT22;32477;51.474;5.696;2023-03-14T04:01:56;10.50;99.90
46732;DHT22;32477;51.474;5.696;2023-03-14T04:04:22;10.50;99.90
46732;DHT22;32477;51.474;5.696;2023-03-14T04:06:48;10.40;99.90
46732;DHT22;32477;51.474;5.696;2023-03-14T04:09:14;10.20;99.90
46732;DHT22;32477;51.474;5.696;2023-03-14T04:11:40;10.10;99.90
46732;DHT22;32477;51.474;5.696;2023-03-14T04:14:07;10.00;99.90
46732;DHT22;32477;51.474;5.696;2023-03-14T04:16:33;9.90;99.90
46732;DHT22;32477;51.474;5.696;2023-03-14T04:18:59;9.90;99.90
46732;DHT22;32477;51.474;5.696;2023-03-14T04:21:25;9.90;99.90
46732;DHT22;32477;51.474;5.696;2023-03-14T04:23:50;9.90;99.90
46732;DHT22;32477;51.474;5.696;2023-03-14T04:26:16;9.90;99.90
46732;DHT22;32477;51.474;5.696;2023-03-14T04:28:42;9.90;99.90
46732;DHT22;32477;51.474;5.696;2023-03-14T04:31:09;9.90;99.90
46732;DHT22;32477;51.474;5.696;2023-03-14T04:33:35;9.90;99.90
46732;DHT22;32477;51.474;5.696;2023-03-14T04:36:03;9.90;99.90
46732;DHT22;32477;51.474;5.696;2023-03-14T04:38:29;9.90;99.90
46732;DHT22;32477;51.474;5.696;2023-03-14T04:40:54;9.80;99.90
46732;DHT22;32477;51.474;5.696;2023-03-14T04:43:20;9.80;99.90
46732;DHT22;32477;51.474;5.696;2023-03-14T04:45:46;9.70;99.90
46732;DHT22;32477;51.474;5.696;2023-03-14T04:48:11;9.70;99.90
46732;DHT22;32477;51.474;5.696;2023-03-14T04:50:38;9.70;99.90
46732;DHT22;32477;51.474;5.696;2023-03-14T04:53:05;9.70;99.90
46732;DHT22;32477;51.474;5.696;2023-03-14T04:55:31;9.70;99.90
46732;DHT22;32477;51.474;5.696;2023-03-14T04:57:58;9.80;99.90
46732;DHT22;32477;51.474;5.696;2023-03-14T05:00:24;9.80;99.90
46732;DHT22;32477;51.474;5.696;2023-03-14T05:02:50;9.80;99.90
46732;DHT22;32477;51.474;5.696;2023-03-14T05:05:15;9.70;99.90
46732;DHT22;32477;51.474;5.696;2023-03-14T05:07:41;9.70;99.90
46732;DHT22;32477;51.474;5.696;2023-03-14T05:10:08;9.60;99.90
46732;DHT22;32477;51.474;5.696;2023-03-14T05:12:36;9.60;99.90
46732;DHT22;32477;51.474;5.696;2023-03-14T05:15:02;9.60;99.90
46732;DHT22;32477;51.474;5.696;2023-03-14T05:17:30;9.60;99.90
46732;DHT22;32477;51.474;5.696;2023-03-14T05:19:55;9.60;99.90
46732;DHT22;32477;51.474;5.696;2023-03-14T05:22:21;9.60;99.90
46732;DHT22;32477;51.474;5.696;2023-03-14T05:24:47;9.60;99.90
46732;DHT22;32477;51.474;5.696;2023-03-14T05:27:13;9.70;99.90
46732;DHT22;32477;51.474;5.696;2023-03-14T05:29:38;9.60;99.90
46732;DHT22;32477;51.474;5.696;2023-03-14T05:32:04;9.70;99.90
46732;DHT22;32477;51.474;5.696;2023-03-14T05:34:30;9.70;99.90
46732;DHT22;32477;51.474;5.696;2023-03-14T05:36:56;9.70;99.90
46732;DHT22;32477;51.474;5.696;2023-03-14T05:39:22;9.70;99.90
46732;DHT22;32477;51.474;5.696;2023-03-14T05:41:48;9.70;99.90
46732;DHT22;32477;51.474;5.696;2023-03-14T05:44:13;9.70;99.90
46732;DHT22;32477;51.474;5.696;2023-03-14T05:46:39;9.80;99.90
46732;DHT22;32477;51.474;5.696;2023-03-14T05:49:05;9.80;99.90
46732;DHT22;32477;51.474;5.696;2023-03-14T05:51:30;9.70;99.90
46732;DHT22;32477;51.474;5.696;2023-03-14T05:53:56;9.70;99.90
46732;DHT22;32477;51.474;5.696;2023-03-14T05:56:21;9.80;99.90
46732;DHT22;32477;51.474;5.696;2023-03-14T05:58:47;9.80;99.90
46732;DHT22;32477;51.474;5.696;2023-03-14T06:01:12;9.80;99.90
46732;DHT22;32477;51.474;5.696;2023-03-14T06:03:38;9.80;99.90
46732;DHT22;32477;51.474;5.696;2023-03-14T06:06:04;9.80;99.90
46732;DHT22;32477;51.474;5.696;2023-03-14T06:08:30;9.70;99.90
46732;DHT22;32477;51.474;5.696;2023-03-14T06:10:56;9.80;99.90
46732;DHT22;32477;51.474;5.696;2023-03-14T06:13:22;9.80;99.90
46732;DHT22;32477;51.474;5.696;2023-03-14T06:15:48;9.80;99.90
46732;DHT22;32477;51.474;5.696;2023-03-14T06:18:13;9.80;99.90
46732;DHT22;32477;51.474;5.696;2023-03-14T06:20:39;9.80;99.90
46732;DHT22;32477;51.474;5.696;2023-03-14T06:23:06;9.80;99.90
46732;DHT22;32477;51.474;5.696;2023-03-14T06:25:33;9.80;99.90
46732;DHT22;32477;51.474;5.696;2023-03-14T06:27:58;9.80;99.90
46732;DHT22;32477;51.474;5.696;2023-03-14T06:30:24;9.90;99.90
46732;DHT22;32477;51.474;5.696;2023-03-14T06:32:50;9.80;99.90
46732;DHT22;32477;51.474;5.696;2023-03-14T06:35:15;9.90;99.90
46732;DHT22;32477;51.474;5.696;2023-03-14T06:37:41;9.90;99.90
46732;DHT22;32477;51.474;5.696;2023-03-14T06:40:11;9.90;99.90
46732;DHT22;32477;51.474;5.696;2023-03-14T06:42:39;9.90;99.90
46732;DHT22;32477;51.474;5.696;2023-03-14T06:45:05;10.00;99.90
46732;DHT22;32477;51.474;5.696;2023-03-14T06:47:31;10.00;99.90
46732;DHT22;32477;51.474;5.696;2023-03-14T06:49:57;10.00;99.90
46732;DHT22;32477;51.474;5.696;2023-03-14T06:52:22;10.10;99.90
46732;DHT22;32477;51.474;5.696;2023-03-14T06:54:48;10.20;99.90
46732;DHT22;32477;51.474;5.696;2023-03-14T06:57:13;10.30;99.90
46732;DHT22;32477;51.474;5.696;2023-03-14T06:59:39;10.40;99.90
46732;DHT22;32477;51.474;5.696;2023-03-14T07:02:07;10.50;99.90
46732;DHT22;32477;51.474;5.696;2023-03-14T07:04:33;10.60;99.90
46732;DHT22;32477;51.474;5.696;2023-03-14T07:06:58;10.70;99.90
46732;DHT22;32477;51.474;5.696;2023-03-14T07:09:24;10.80;99.90
46732;DHT22;32477;51.474;5.696;2023-03-14T07:11:50;11.00;99.90
46732;DHT22;32477;51.474;5.696;2023-03-14T07:14:15;11.30;99.90
46732;DHT22;32477;51.474;5.696;2023-03-14T07:16:41;11.40;99.90
46732;DHT22;32477;51.474;5.696;2023-03-14T07:19:07;11.30;99.90
46732;DHT22;32477;51.474;5.696;2023-03-14T07:21:32;11.20;99.90
46732;DHT22;32477;51.474;5.696;2023-03-14T07:24:00;11.10;99.90
46732;DHT22;32477;51.474;5.696;2023-03-14T07:26:25;11.00;99.90
46732;DHT22;32477;51.474;5.696;2023-03-14T07:28:51;11.00;99.90
46732;DHT22;32477;51.474;5.696;2023-03-14T07:31:17;11.00;99.90
46732;DHT22;32477;51.474;5.696;2023-03-14T07:33:42;11.00;99.90
46732;DHT22;32477;51.474;5.696;2023-03-14T07:36:10;11.00;99.90
46732;DHT22;32477;51.474;5.696;2023-03-14T07:38:35;10.90;99.90
46732;DHT22;32477;51.474;5.696;2023-03-14T07:41:04;10.80;99.90
46732;DHT22;32477;51.474;5.696;2023-03-14T07:43:30;10.80;99.90
46732;DHT22;32477;51.474;5.696;2023-03-14T07:45:56;10.70;99.90
46732;DHT22;32477;51.474;5.696;2023-03-14T07:48:22;10.60;99.90
46732;DHT22;32477;51.474;5.696;2023-03-14T07:50:50;10.50;99.90
46732;DHT22;32477;51.474;5.696;2023-03-14T07:53:17;10.40;99.90
46732;DHT22;32477;51.474;5.696;2023-03-14T07:55:42;10.30;99.90
46732;DHT22;32477;51.474;5.696;2023-03-14T07:58:08;9.70;99.90
46732;DHT22;32477;51.474;5.696;2023-03-14T08:00:33;9.20;99.90
46732;DHT22;32477;51.474;5.696;2023-03-14T08:02:59;8.90;99.90
46732;DHT22;32477;51.474;5.696;2023-03-14T08:05:25;8.80;99.90
46732;DHT22;32477;51.474;5.696;2023-03-14T08:07:50;8.80;99.90
46732;DHT22;32477;51.474;5.696;2023-03-14T08:10:16;8.60;99.90
46732;DHT22;32477;51.474;5.696;2023-03-14T08:12:54;8.50;99.90
46732;DHT22;32477;51.474;5.696;2023-03-14T08:15:20;8.30;99.90
46732;DHT22;32477;51.474;5.696;2023-03-14T08:17:46;8.20;99.90
46732;DHT22;32477;51.474;5.696;2023-03-14T08:20:19;8.10;99.90
46732;DHT22;32477;51.474;5.696;2023-03-14T08:22:44;8.10;99.90
46732;DHT22;32477;51.474;5.696;2023-03-14T08:25:13;8.10;99.90
46732;DHT22;32477;51.474;5.696;2023-03-14T08:27:38;8.10;99.90
46732;DHT22;32477;51.474;5.696;2023-03-14T08:30:06;8.30;99.90
46732;DHT22;32477;51.474;5.696;2023-03-14T08:32:32;8.30;99.90
46732;DHT22;32477;51.474;5.696;2023-03-14T08:34:58;8.30;99.90
46732;DHT22;32477;51.474;5.696;2023-03-14T08:37:23;8.30;99.90
46732;DHT22;32477;51.474;5.696;2023-03-14T08:39:50;8.30;99.90
46732;DHT22;32477;51.474;5.696;2023-03-14T08:42:17;8.30;99.90
46732;DHT22;32477;51.474;5.696;2023-03-14T08:44:42;8.30;99.90
46732;DHT22;32477;51.474;5.696;2023-03-14T08:47:08;8.30;99.90
46732;DHT22;32477;51.474;5.696;2023-03-14T08:49:34;8.30;99.90
46732;DHT22;32477;51.474;5.696;2023-03-14T08:52:02;8.40;99.90
46732;DHT22;32477;51.474;5.696;2023-03-14T08:54:28;8.40;99.90
46732;DHT22;32477;51.474;5.696;2023-03-14T08:56:54;8.50;99.90
46732;DHT22;32477;51.474;5.696;2023-03-14T08:59:19;8.40;99.90
46732;DHT22;32477;51.474;5.696;2023-03-14T09:01:45;8.50;99.90
46732;DHT22;32477;51.474;5.696;2023-03-14T09:04:11;8.70;99.90
46732;DHT22;32477;51.474;5.696;2023-03-14T09:06:36;8.80;99.90
46732;DHT22;32477;51.474;5.696;2023-03-14T09:09:02;8.90;99.90
46732;DHT22;32477;51.474;5.696;2023-03-14T09:11:28;8.90;99.90
46732;DHT22;32477;51.474;5.696;2023-03-14T09:13:53;9.10;99.90
46732;DHT22;32477;51.474;5.696;2023-03-14T09:16:19;9.10;99.90
46732;DHT22;32477;51.474;5.696;2023-03-14T09:18:45;9.30;99.90
46732;DHT22;32477;51.474;5.696;2023-03-14T09:21:13;9.30;99.90
46732;DHT22;32477;51.474;5.696;2023-03-14T09:23:39;9.30;99.90
46732;DHT22;32477;51.474;5.696;2023-03-14T09:26:06;9.50;99.90
46732;DHT22;32477;51.474;5.696;2023-03-14T09:28:32;9.60;99.90
46732;DHT22;32477;51.474;5.696;2023-03-14T09:30:57;9.60;99.90
46732;DHT22;32477;51.474;5.696;2023-03-14T09:33:23;9.60;99.90
46732;DHT22;32477;51.474;5.696;2023-03-14T09:35:49;9.60;99.90
46732;DHT22;32477;51.474;5.696;2023-03-14T09:38:15;9.40;99.90
46732;DHT22;32477;51.474;5.696;2023-03-14T09:40:41;9.10;99.90
46732;DHT22;32477;51.474;5.696;2023-03-14T09:43:16;8.90;99.90
46732;DHT22;32477;51.474;5.696;2023-03-14T09:45:44;8.50;99.90
46732;DHT22;32477;51.474;5.696;2023-03-14T09:48:19;8.40;99.90
46732;DHT22;32477;51.474;5.696;2023-03-14T09:50:50;8.20;99.90
46732;DHT22;32477;51.474;5.696;2023-03-14T09:53:26;8.00;99.90
46732;DHT22;32477;51.474;5.696;2023-03-14T09:55:53;7.80;99.90
46732;DHT22;32477;51.474;5.696;2023-03-14T09:58:22;7.70;99.90
46732;DHT22;32477;51.474;5.696;2023-03-14T10:00:54;7.20;99.90
46732;DHT22;32477;51.474;5.696;2023-03-14T10:03:32;7.00;99.90
46732;DHT22;32477;51.474;5.696;2023-03-14T10:05:58;6.80;99.90
46732;DHT22;32477;51.474;5.696;2023-03-14T10:08:24;6.80;99.90
46732;DHT22;32477;51.474;5.696;2023-03-14T10:10:49;6.90;99.90
46732;DHT22;32477;51.474;5.696;2023-03-14T10:13:21;7.10;99.90
46732;DHT22;32477;51.474;5.696;2023-03-14T10:16:07;7.40;99.90
46732;DHT22;32477;51.474;5.696;2023-03-14T10:18:33;8.00;99.90
46732;DHT22;32477;51.474;5.696;2023-03-14T10:21:21;8.30;99.90
46732;DHT22;32477;51.474;5.696;2023-03-14T10:23:51;8.40;99.90
46732;DHT22;32477;51.474;5.696;2023-03-14T10:26:23;8.50;99.90
46732;DHT22;32477;51.474;5.696;2023-03-14T10:28:53;8.70;99.90
46732;DHT22;32477;51.474;5.696;2023-03-14T10:31:25;8.80;99.90
46732;DHT22;32477;51.474;5.696;2023-03-14T10:34:02;8.70;99.90
46732;DHT22;32477;51.474;5.696;2023-03-14T10:36:32;8.70;99.90
46732;DHT22;32477;51.474;5.696;2023-03-14T10:42:13;8.50;99.90
46732;DHT22;32477;51.474;5.696;2023-03-14T10:44:41;8.50;99.90
46732;DHT22;32477;51.474;5.696;2023-03-14T10:47:17;8.30;99.90
46732;DHT22;32477;51.474;5.696;2023-03-14T10:49:43;8.30;99.90
46732;DHT22;32477;51.474;5.696;2023-03-14T10:52:13;8.80;99.90
46732;DHT22;32477;51.474;5.696;2023-03-14T10:54:39;8.80;99.90
46732;DHT22;32477;51.474;5.696;2023-03-14T10:57:05;9.20;99.90
46732;DHT22;32477;51.474;5.696;2023-03-14T10:59:36;9.70;99.90
46732;DHT22;32477;51.474;5.696;2023-03-14T11:08:08;9.90;99.90
46732;DHT22;32477;51.474;5.696;2023-03-14T11:10:38;10.00;99.90
46732;DHT22;32477;51.474;5.696;2023-03-14T11:13:24;9.60;99.90
46732;DHT22;32477;51.474;5.696;2023-03-14T11:16:25;9.50;99.90
46732;DHT22;32477;51.474;5.696;2023-03-14T11:27:17;8.80;99.90
46732;DHT22;32477;51.474;5.696;2023-03-14T11:32:15;9.40;99.90
46732;DHT22;32477;51.474;5.696;2023-03-14T11:34:53;9.60;99.90
46732;DHT22;32477;51.474;5.696;2023-03-14T11:37:36;9.40;99.90
46732;DHT22;32477;51.474;5.696;2023-03-14T11:42:33;8.80;99.90
46732;DHT22;32477;51.474;5.696;2023-03-14T11:45:00;8.40;99.90
46732;DHT22;32477;51.474;5.696;2023-03-14T11:47:29;7.20;99.90
46732;DHT22;32477;51.474;5.696;2023-03-14T11:50:12;6.80;99.90
46732;DHT22;32477;51.474;5.696;2023-03-14T11:52:48;6.50;99.90
46732;DHT22;32477;51.474;5.696;2023-03-14T11:55:19;6.60;99.90
46732;DHT22;32477;51.474;5.696;2023-03-14T11:57:47;6.80;99.90
46732;DHT22;32477;51.474;5.696;2023-03-14T12:00:18;7.00;99.90
46732;DHT22;32477;51.474;5.696;2023-03-14T12:02:57;7.10;99.90
46732;DHT22;32477;51.474;5.696;2023-03-14T12:10:51;7.60;99.90
46732;DHT22;32477;51.474;5.696;2023-03-14T12:13:17;7.60;99.90
46732;DHT22;32477;51.474;5.696;2023-03-14T12:20:54;8.00;99.90
46732;DHT22;32477;51.474;5.696;2023-03-14T12:23:21;8.20;99.90
46732;DHT22;32477;51.474;5.696;2023-03-14T12:25:47;8.00;99.90
46732;DHT22;32477;51.474;5.696;2023-03-14T12:28:22;7.40;99.90
46732;DHT22;32477;51.474;5.696;2023-03-14T12:30:55;7.00;99.90
46732;DHT22;32477;51.474;5.696;2023-03-14T12:33:30;6.90;99.90
46732;DHT22;32477;51.474;5.696;2023-03-14T12:36:03;6.90;99.90
46732;DHT22;32477;51.474;5.696;2023-03-14T12:38:47;7.00;99.90
46732;DHT22;32477;51.474;5.696;2023-03-14T12:41:40;7.30;99.90
46732;DHT22;32477;51.474;5.696;2023-03-14T12:46:54;9.80;99.90
46732;DHT22;32477;51.474;5.696;2023-03-14T12:49:20;10.80;99.90
46732;DHT22;32477;51.474;5.696;2023-03-14T12:51:46;10.40;99.90
46732;DHT22;32477;51.474;5.696;2023-03-14T12:54:21;9.80;99.90
46732;DHT22;32477;51.474;5.696;2023-03-14T13:02:41;11.80;99.90
46732;DHT22;32477;51.474;5.696;2023-03-14T13:04:50;11.60;99.90
46732;DHT22;32477;51.474;5.696;2023-03-14T13:10:26;12.70;99.90
46732;DHT22;32477;51.474;5.696;2023-03-14T13:15:39;12.40;99.90
46732;DHT22;32477;51.474;5.696;2023-03-14T13:20:48;13.00;99.90
46732;DHT22;32477;51.474;5.696;2023-03-14T13:23:37;13.40;99.90
46732;DHT22;32477;51.474;5.696;2023-03-14T13:26:03;12.80;99.90
46732;DHT22;32477;51.474;5.696;2023-03-14T13:28:32;13.00;99.90
46732;DHT22;32477;51.474;5.696;2023-03-14T13:31:04;12.70;99.90
46732;DHT22;32477;51.474;5.696;2023-03-14T13:33:32;12.40;99.90
46732;DHT22;32477;51.474;5.696;2023-03-14T13:36:00;12.20;99.90
46732;DHT22;32477;51.474;5.696;2023-03-14T13:38:30;12.60;99.50
46732;DHT22;32477;51.474;5.696;2023-03-14T13:40:58;11.70;93.10
46732;DHT22;32477;51.474;5.696;2023-03-14T13:46:04;11.50;95.40
46732;DHT22;32477;51.474;5.696;2023-03-14T13:48:32;11.50;96.30
46732;DHT22;32477;51.474;5.696;2023-03-14T13:51:07;11.70;97.00
46732;DHT22;32477;51.474;5.696;2023-03-14T13:53:49;11.80;97.20
46732;DHT22;32477;51.474;5.696;2023-03-14T13:56:24;11.60;93.00
46732;DHT22;32477;51.474;5.696;2023-03-14T13:58:50;11.20;93.40
46732;DHT22;32477;51.474;5.696;2023-03-14T14:01:25;11.10;92.20
46732;DHT22;32477;51.474;5.696;2023-03-14T14:03:55;11.20;93.70
46732;DHT22;32477;51.474;5.696;2023-03-14T14:06:34;10.80;94.30
46732;DHT22;32477;51.474;5.696;2023-03-14T14:09:20;10.40;96.20
46732;DHT22;32477;51.474;5.696;2023-03-14T14:16:47;10.50;95.60
46732;DHT22;32477;51.474;5.696;2023-03-14T14:19:14;10.00;98.20
46732;DHT22;32477;51.474;5.696;2023-03-14T14:21:41;10.30;98.30
46732;DHT22;32477;51.474;5.696;2023-03-14T14:24:11;10.30;97.40
46732;DHT22;32477;51.474;5.696;2023-03-14T14:26:41;10.00;97.30
46732;DHT22;32477;51.474;5.696;2023-03-14T14:29:24;9.60;97.50
46732;DHT22;32477;51.474;5.696;2023-03-14T14:32:03;9.40;97.70
46732;DHT22;32477;51.474;5.696;2023-03-14T14:34:41;9.40;96.50
46732;DHT22;32477;51.474;5.696;2023-03-14T14:37:34;9.50;95.80
46732;DHT22;32477;51.474;5.696;2023-03-14T14:40:26;9.30;95.40
46732;DHT22;32477;51.474;5.696;2023-03-14T14:42:52;9.30;96.90
46732;DHT22;32477;51.474;5.696;2023-03-14T14:45:23;9.30;98.40
46732;DHT22;32477;51.474;5.696;2023-03-14T14:48:12;9.20;97.60
46732;DHT22;32477;51.474;5.696;2023-03-14T14:53:38;9.00;98.60
46732;DHT22;32477;51.474;5.696;2023-03-14T14:56:25;9.10;99.90
46732;DHT22;32477;51.474;5.696;2023-03-14T14:58:57;9.10;96.70
46732;DHT22;32477;51.474;5.696;2023-03-14T15:01:25;9.20;96.90
46732;DHT22;32477;51.474;5.696;2023-03-14T15:03:56;9.10;96.00
46732;DHT22;32477;51.474;5.696;2023-03-14T15:06:24;9.20;95.70
46732;DHT22;32477;51.474;5.696;2023-03-14T15:08:53;9.20;95.20
46732;DHT22;32477;51.474;5.696;2023-03-14T15:11:21;9.70;97.40
46732;DHT22;32477;51.474;5.696;2023-03-14T15:13:48;9.60;98.80
46732;DHT22;32477;51.474;5.696;2023-03-14T15:16:17;9.10;97.20
46732;DHT22;32477;51.474;5.696;2023-03-14T15:18:43;8.80;98.20
46732;DHT22;32477;51.474;5.696;2023-03-14T15:21:10;8.60;98.80
46732;DHT22;32477;51.474;5.696;2023-03-14T15:23:36;8.50;99.40
46732;DHT22;32477;51.474;5.696;2023-03-14T15:26:02;8.40;99.90
46732;DHT22;32477;51.474;5.696;2023-03-14T15:28:29;8.40;99.90
46732;DHT22;32477;51.474;5.696;2023-03-14T15:30:56;8.40;99.90
46732;DHT22;32477;51.474;5.696;2023-03-14T15:33:23;8.20;99.20
46732;DHT22;32477;51.474;5.696;2023-03-14T15:35:49;8.20;99.90
46732;DHT22;32477;51.474;5.696;2023-03-14T15:38:18;7.90;99.90
46732;DHT22;32477;51.474;5.696;2023-03-14T15:40:46;7.90;99.90
46732;DHT22;32477;51.474;5.696;2023-03-14T15:43:12;7.90;99.90
46732;DHT22;32477;51.474;5.696;2023-03-14T15:45:38;7.90;99.90
46732;DHT22;32477;51.474;5.696;2023-03-14T15:48:04;7.80;99.90
46732;DHT22;32477;51.474;5.696;2023-03-14T15:50:30;7.80;99.90
46732;DHT22;32477;51.474;5.696;2023-03-14T15:52:56;7.70;99.90
46732;DHT22;32477;51.474;5.696;2023-03-14T15:55:22;7.60;99.90
46732;DHT22;32477;51.474;5.696;2023-03-14T15:57:48;7.40;99.90
46732;DHT22;32477;51.474;5.696;2023-03-14T16:00:16;7.30;99.90
46732;DHT22;32477;51.474;5.696;2023-03-14T16:02:47;7.30;99.90
46732;DHT22;32477;51.474;5.696;2023-03-14T16:05:13;7.40;99.90
46732;DHT22;32477;51.474;5.696;2023-03-14T16:07:39;7.30;99.90
46732;DHT22;32477;51.474;5.696;2023-03-14T16:10:06;7.20;99.90
46732;DHT22;32477;51.474;5.696;2023-03-14T16:12:33;7.20;99.90
46732;DHT22;32477;51.474;5.696;2023-03-14T16:14:59;7.10;99.90
46732;DHT22;32477;51.474;5.696;2023-03-14T16:17:25;7.10;99.90
46732;DHT22;32477;51.474;5.696;2023-03-14T16:19:50;7.10;99.90
46732;DHT22;32477;51.474;5.696;2023-03-14T16:22:16;7.00;99.90
46732;DHT22;32477;51.474;5.696;2023-03-14T16:24:42;6.90;99.90
46732;DHT22;32477;51.474;5.696;2023-03-14T16:27:08;6.80;99.90
46732;DHT22;32477;51.474;5.696;2023-03-14T16:29:34;6.80;99.90
46732;DHT22;32477;51.474;5.696;2023-03-14T16:32:00;6.70;99.90
46732;DHT22;32477;51.474;5.696;2023-03-14T16:34:25;6.70;99.90
46732;DHT22;32477;51.474;5.696;2023-03-14T16:36:51;6.70;99.90
46732;DHT22;32477;51.474;5.696;2023-03-14T16:39:17;6.70;99.90
46732;DHT22;32477;51.474;5.696;2023-03-14T16:41:43;6.70;99.90
46732;DHT22;32477;51.474;5.696;2023-03-14T16:44:09;6.60;99.90
46732;DHT22;32477;51.474;5.696;2023-03-14T16:46:35;6.60;99.90
46732;DHT22;32477;51.474;5.696;2023-03-14T16:49:01;6.50;99.90
46732;DHT22;32477;51.474;5.696;2023-03-14T16:51:27;6.40;99.90
46732;DHT22;32477;51.474;5.696;2023-03-14T16:53:53;6.40;99.90
46732;DHT22;32477;51.474;5.696;2023-03-14T16:56:18;6.40;99.90
46732;DHT22;32477;51.474;5.696;2023-03-14T16:58:45;6.40;99.90